sensor_id;sensor_type;location;lat;lon;timestamp;P1;durP1;ratioP1;P2;durP2;ratioP2
47519;SDS011;33252;48.122;11.538;2023-08-24T00:01:06;9.27;;;5.13;;
47519;SDS011;33252;48.122;11.538;2023-08-24T00:03:33;9.55;;;5.35;;
47519;SDS011;33252;48.122;11.538;2023-08-24T00:05:59;8.98;;;5.53;;
47519;SDS011;33252;48.122;11.538;2023-08-24T00:08:25;7.85;;;5.57;;
47519;SDS011;33252;48.122;11.538;2023-08-24T00:10:51;5.82;;;5.32;;
47519;SDS011;33252;48.122;11.538;2023-08-24T00:13:17;7.80;;;5.15;;
47519;SDS011;33252;48.122;11.538;2023-08-24T00:15:44;10.43;;;6.03;;
47519;SDS011;33252;48.122;11.538;2023-08-24T00:18:10;7.53;;;5.53;;
47519;SDS011;33252;48.122;11.538;2023-08-24T00:20:36;6.95;;;5.63;;
47519;SDS011;33252;48.122;11.538;2023-08-24T00:23:02;10.82;;;6.43;;
47519;SDS011;33252;48.122;11.538;2023-08-24T00:25:28;7.85;;;5.80;;
47519;SDS011;33252;48.122;11.538;2023-08-24T00:27:55;6.55;;;5.93;;
47519;SDS011;33252;48.122;11.538;2023-08-24T00:30:21;7.70;;;6.30;;
47519;SDS011;33252;48.122;11.538;2023-08-24T00:32:48;7.20;;;5.40;;
47519;SDS011;33252;48.122;11.538;2023-08-24T00:35:13;9.00;;;6.00;;
47519;SDS011;33252;48.122;11.538;2023-08-24T00:37:39;9.05;;;6.43;;
47519;SDS011;33252;48.122;11.538;2023-08-24T00:40:06;7.68;;;6.22;;
47519;SDS011;33252;48.122;11.538;2023-08-24T00:42:41;9.52;;;6.15;;
47519;SDS011;33252;48.122;11.538;2023-08-24T00:45:08;6.05;;;5.47;;
47519;SDS011;33252;48.122;11.538;2023-08-24T00:47:39;9.00;;;6.75;;
47519;SDS011;33252;48.122;11.538;2023-08-24T00:50:06;7.78;;;6.43;;
47519;SDS011;33252;48.122;11.538;2023-08-24T00:52:33;10.57;;;6.75;;
47519;SDS011;33252;48.122;11.538;2023-08-24T00:55:01;10.48;;;7.22;;
47519;SDS011;33252;48.122;11.538;2023-08-24T00:57:27;8.95;;;7.45;;
47519;SDS011;33252;48.122;11.538;2023-08-24T00:59:54;10.57;;;7.93;;
47519;SDS011;33252;48.122;11.538;2023-08-24T01:02:21;9.70;;;7.00;;
47519;SDS011;33252;48.122;11.538;2023-08-24T01:04:46;9.20;;;8.30;;
47519;SDS011;33252;48.122;11.538;2023-08-24T01:07:12;12.55;;;8.20;;
47519;SDS011;33252;48.122;11.538;2023-08-24T01:09:39;9.02;;;8.02;;
47519;SDS011;33252;48.122;11.538;2023-08-24T01:14:50;13.38;;;8.75;;
47519;SDS011;33252;48.122;11.538;2023-08-24T01:17:32;9.82;;;8.93;;
47519;SDS011;33252;48.122;11.538;2023-08-24T01:20:01;11.75;;;9.05;;
47519;SDS011;33252;48.122;11.538;2023-08-24T01:22:34;10.02;;;8.30;;
47519;SDS011;33252;48.122;11.538;2023-08-24T01:25:06;9.38;;;8.40;;
47519;SDS011;33252;48.122;11.538;2023-08-24T01:27:49;12.40;;;9.00;;
47519;SDS011;33252;48.122;11.538;2023-08-24T01:30:17;10.10;;;7.85;;
47519;SDS011;33252;48.122;11.538;2023-08-24T01:32:43;11.40;;;9.85;;
47519;SDS011;33252;48.122;11.538;2023-08-24T01:35:11;11.35;;;9.15;;
47519;SDS011;33252;48.122;11.538;2023-08-24T01:37:37;12.20;;;10.88;;
47519;SDS011;33252;48.122;11.538;2023-08-24T01:40:07;14.05;;;9.35;;
47519;SDS011;33252;48.122;11.538;2023-08-24T01:45:13;13.20;;;9.82;;
47519;SDS011;33252;48.122;11.538;2023-08-24T01:47:41;10.82;;;8.63;;
47519;SDS011;33252;48.122;11.538;2023-08-24T01:50:08;12.07;;;10.43;;
47519;SDS011;33252;48.122;11.538;2023-08-24T01:52:34;10.85;;;9.73;;
47519;SDS011;33252;48.122;11.538;2023-08-24T01:55:00;11.13;;;8.98;;
47519;SDS011;33252;48.122;11.538;2023-08-24T01:57:26;11.95;;;9.38;;
47519;SDS011;33252;48.122;11.538;2023-08-24T01:59:51;11.18;;;9.65;;
47519;SDS011;33252;48.122;11.538;2023-08-24T02:02:17;12.80;;;10.27;;
47519;SDS011;33252;48.122;11.538;2023-08-24T02:04:43;10.63;;;9.57;;
47519;SDS011;33252;48.122;11.538;2023-08-24T02:07:08;13.85;;;10.45;;
47519;SDS011;33252;48.122;11.538;2023-08-24T02:09:34;12.63;;;9.77;;
47519;SDS011;33252;48.122;11.538;2023-08-24T02:11:59;11.68;;;10.40;;
47519;SDS011;33252;48.122;11.538;2023-08-24T02:14:25;10.55;;;9.48;;
47519;SDS011;33252;48.122;11.538;2023-08-24T02:16:51;11.73;;;9.93;;
47519;SDS011;33252;48.122;11.538;2023-08-24T02:19:16;11.95;;;9.95;;
47519;SDS011;33252;48.122;11.538;2023-08-24T02:21:42;13.32;;;9.75;;
47519;SDS011;33252;48.122;11.538;2023-08-24T02:24:07;10.80;;;9.35;;
47519;SDS011;33252;48.122;11.538;2023-08-24T02:26:33;13.85;;;10.50;;
47519;SDS011;33252;48.122;11.538;2023-08-24T02:28:59;10.55;;;9.23;;
47519;SDS011;33252;48.122;11.538;2023-08-24T02:31:25;11.88;;;9.88;;
47519;SDS011;33252;48.122;11.538;2023-08-24T02:33:50;12.45;;;9.38;;
47519;SDS011;33252;48.122;11.538;2023-08-24T02:36:16;12.85;;;9.73;;
47519;SDS011;33252;48.122;11.538;2023-08-24T02:38:42;13.88;;;9.88;;
47519;SDS011;33252;48.122;11.538;2023-08-24T02:41:07;11.40;;;10.13;;
47519;SDS011;33252;48.122;11.538;2023-08-24T02:43:35;11.43;;;9.93;;
47519;SDS011;33252;48.122;11.538;2023-08-24T02:46:02;11.50;;;10.40;;
47519;SDS011;33252;48.122;11.538;2023-08-24T02:48:29;12.15;;;10.90;;
47519;SDS011;33252;48.122;11.538;2023-08-24T02:50:56;10.30;;;9.18;;
47519;SDS011;33252;48.122;11.538;2023-08-24T02:53:23;10.20;;;8.80;;
47519;SDS011;33252;48.122;11.538;2023-08-24T02:55:49;15.77;;;9.98;;
47519;SDS011;33252;48.122;11.538;2023-08-24T02:58:14;14.10;;;10.55;;
47519;SDS011;33252;48.122;11.538;2023-08-24T03:00:40;14.48;;;10.40;;
47519;SDS011;33252;48.122;11.538;2023-08-24T03:03:06;13.13;;;11.45;;
47519;SDS011;33252;48.122;11.538;2023-08-24T03:05:32;14.02;;;11.25;;
47519;SDS011;33252;48.122;11.538;2023-08-24T03:07:58;11.32;;;10.30;;
47519;SDS011;33252;48.122;11.538;2023-08-24T03:10:24;12.82;;;11.18;;
47519;SDS011;33252;48.122;11.538;2023-08-24T03:12:49;13.70;;;11.68;;
47519;SDS011;33252;48.122;11.538;2023-08-24T03:15:15;11.93;;;10.75;;
47519;SDS011;33252;48.122;11.538;2023-08-24T03:17:41;12.43;;;11.13;;
47519;SDS011;33252;48.122;11.538;2023-08-24T03:20:07;13.95;;;12.00;;
47519;SDS011;33252;48.122;11.538;2023-08-24T03:22:33;13.05;;;11.35;;
47519;SDS011;33252;48.122;11.538;2023-08-24T03:24:59;13.98;;;11.75;;
47519;SDS011;33252;48.122;11.538;2023-08-24T03:27:25;12.25;;;10.98;;
47519;SDS011;33252;48.122;11.538;2023-08-24T03:29:54;13.63;;;10.98;;
47519;SDS011;33252;48.122;11.538;2023-08-24T03:32:19;12.90;;;11.52;;
47519;SDS011;33252;48.122;11.538;2023-08-24T03:34:45;12.48;;;10.98;;
47519;SDS011;33252;48.122;11.538;2023-08-24T03:37:11;14.18;;;11.43;;
47519;SDS011;33252;48.122;11.538;2023-08-24T03:39:37;22.45;;;12.45;;
47519;SDS011;33252;48.122;11.538;2023-08-24T03:42:03;12.40;;;11.20;;
47519;SDS011;33252;48.122;11.538;2023-08-24T03:44:29;12.00;;;10.82;;
47519;SDS011;33252;48.122;11.538;2023-08-24T03:46:54;13.30;;;11.75;;
47519;SDS011;33252;48.122;11.538;2023-08-24T03:49:20;12.98;;;11.82;;
47519;SDS011;33252;48.122;11.538;2023-08-24T03:51:46;11.93;;;10.68;;
47519;SDS011;33252;48.122;11.538;2023-08-24T03:54:11;18.85;;;11.93;;
47519;SDS011;33252;48.122;11.538;2023-08-24T03:56:37;14.50;;;11.07;;
47519;SDS011;33252;48.122;11.538;2023-08-24T03:59:04;12.18;;;11.07;;
47519;SDS011;33252;48.122;11.538;2023-08-24T04:01:29;12.82;;;11.50;;
47519;SDS011;33252;48.122;11.538;2023-08-24T04:03:55;12.82;;;11.18;;
47519;SDS011;33252;48.122;11.538;2023-08-24T04:06:21;13.18;;;11.80;;
47519;SDS011;33252;48.122;11.538;2023-08-24T04:08:46;14.00;;;10.98;;
47519;SDS011;33252;48.122;11.538;2023-08-24T04:11:12;17.08;;;12.15;;
47519;SDS011;33252;48.122;11.538;2023-08-24T04:13:37;14.73;;;12.02;;
47519;SDS011;33252;48.122;11.538;2023-08-24T04:16:03;13.75;;;11.68;;
47519;SDS011;33252;48.122;11.538;2023-08-24T04:18:29;13.85;;;12.43;;
47519;SDS011;33252;48.122;11.538;2023-08-24T04:20:55;13.70;;;12.00;;
47519;SDS011;33252;48.122;11.538;2023-08-24T04:23:24;15.93;;;12.15;;
47519;SDS011;33252;48.122;11.538;2023-08-24T04:25:53;15.40;;;12.57;;
47519;SDS011;33252;48.122;11.538;2023-08-24T04:28:19;12.43;;;11.15;;
47519;SDS011;33252;48.122;11.538;2023-08-24T04:30:49;13.48;;;12.18;;
47519;SDS011;33252;48.122;11.538;2023-08-24T04:33:16;14.98;;;12.98;;
47519;SDS011;33252;48.122;11.538;2023-08-24T04:35:41;14.40;;;12.82;;
47519;SDS011;33252;48.122;11.538;2023-08-24T04:38:07;12.50;;;11.32;;
47519;SDS011;33252;48.122;11.538;2023-08-24T04:43:13;12.80;;;11.55;;
47519;SDS011;33252;48.122;11.538;2023-08-24T04:45:39;15.90;;;12.73;;
47519;SDS011;33252;48.122;11.538;2023-08-24T04:48:05;13.18;;;11.82;;
47519;SDS011;33252;48.122;11.538;2023-08-24T04:50:30;15.43;;;12.90;;
47519;SDS011;33252;48.122;11.538;2023-08-24T04:52:56;13.52;;;11.65;;
47519;SDS011;33252;48.122;11.538;2023-08-24T04:55:22;13.25;;;11.82;;
47519;SDS011;33252;48.122;11.538;2023-08-24T04:57:48;15.43;;;12.45;;
47519;SDS011;33252;48.122;11.538;2023-08-24T05:00:14;15.60;;;12.48;;
47519;SDS011;33252;48.122;11.538;2023-08-24T05:02:42;12.77;;;11.05;;
47519;SDS011;33252;48.122;11.538;2023-08-24T05:05:08;14.73;;;11.32;;
47519;SDS011;33252;48.122;11.538;2023-08-24T05:07:39;13.68;;;12.18;;
47519;SDS011;33252;48.122;11.538;2023-08-24T05:10:06;13.70;;;12.40;;
47519;SDS011;33252;48.122;11.538;2023-08-24T05:12:32;14.77;;;12.60;;
47519;SDS011;33252;48.122;11.538;2023-08-24T05:15:01;14.73;;;12.52;;
47519;SDS011;33252;48.122;11.538;2023-08-24T05:17:26;13.88;;;12.18;;
47519;SDS011;33252;48.122;11.538;2023-08-24T05:19:53;12.98;;;11.40;;
47519;SDS011;33252;48.122;11.538;2023-08-24T05:22:19;13.63;;;11.43;;
47519;SDS011;33252;48.122;11.538;2023-08-24T05:24:45;14.15;;;12.05;;
47519;SDS011;33252;48.122;11.538;2023-08-24T05:27:11;13.68;;;12.27;;
47519;SDS011;33252;48.122;11.538;2023-08-24T05:29:36;15.82;;;13.50;;
47519;SDS011;33252;48.122;11.538;2023-08-24T05:32:02;17.13;;;13.05;;
47519;SDS011;33252;48.122;11.538;2023-08-24T05:34:28;14.73;;;12.98;;
47519;SDS011;33252;48.122;11.538;2023-08-24T05:36:54;17.88;;;12.57;;
47519;SDS011;33252;48.122;11.538;2023-08-24T05:39:19;16.90;;;13.07;;
47519;SDS011;33252;48.122;11.538;2023-08-24T05:41:45;14.15;;;11.93;;
47519;SDS011;33252;48.122;11.538;2023-08-24T05:44:11;20.88;;;15.45;;
47519;SDS011;33252;48.122;11.538;2023-08-24T05:46:36;17.23;;;15.05;;
47519;SDS011;33252;48.122;11.538;2023-08-24T05:49:02;18.80;;;14.02;;
47519;SDS011;33252;48.122;11.538;2023-08-24T05:51:28;17.35;;;12.88;;
47519;SDS011;33252;48.122;11.538;2023-08-24T05:53:53;14.27;;;12.73;;
47519;SDS011;33252;48.122;11.538;2023-08-24T05:56:23;15.13;;;13.05;;
47519;SDS011;33252;48.122;11.538;2023-08-24T05:58:49;16.48;;;12.57;;
47519;SDS011;33252;48.122;11.538;2023-08-24T06:01:15;15.20;;;12.55;;
47519;SDS011;33252;48.122;11.538;2023-08-24T06:03:41;14.57;;;12.50;;
47519;SDS011;33252;48.122;11.538;2023-08-24T06:06:07;13.82;;;12.40;;
47519;SDS011;33252;48.122;11.538;2023-08-24T06:08:34;13.65;;;12.27;;
47519;SDS011;33252;48.122;11.538;2023-08-24T06:11:00;15.23;;;13.57;;
47519;SDS011;33252;48.122;11.538;2023-08-24T06:13:25;13.32;;;11.90;;
47519;SDS011;33252;48.122;11.538;2023-08-24T06:15:52;15.15;;;11.27;;
47519;SDS011;33252;48.122;11.538;2023-08-24T06:18:17;14.25;;;12.45;;
47519;SDS011;33252;48.122;11.538;2023-08-24T06:20:43;14.70;;;13.27;;
47519;SDS011;33252;48.122;11.538;2023-08-24T06:23:10;15.25;;;11.43;;
47519;SDS011;33252;48.122;11.538;2023-08-24T06:25:36;13.18;;;11.82;;
47519;SDS011;33252;48.122;11.538;2023-08-24T06:28:04;15.00;;;12.05;;
47519;SDS011;33252;48.122;11.538;2023-08-24T06:30:30;14.10;;;12.82;;
47519;SDS011;33252;48.122;11.538;2023-08-24T06:33:02;14.90;;;11.70;;
47519;SDS011;33252;48.122;11.538;2023-08-24T06:35:28;14.30;;;12.70;;
47519;SDS011;33252;48.122;11.538;2023-08-24T06:37:54;13.60;;;11.65;;
47519;SDS011;33252;48.122;11.538;2023-08-24T06:40:20;14.40;;;11.65;;
47519;SDS011;33252;48.122;11.538;2023-08-24T06:42:45;14.27;;;12.43;;
47519;SDS011;33252;48.122;11.538;2023-08-24T06:45:11;17.88;;;12.65;;
47519;SDS011;33252;48.122;11.538;2023-08-24T06:47:37;13.68;;;12.18;;
47519;SDS011;33252;48.122;11.538;2023-08-24T06:50:04;17.00;;;12.85;;
47519;SDS011;33252;48.122;11.538;2023-08-24T06:52:31;12.95;;;11.75;;
47519;SDS011;33252;48.122;11.538;2023-08-24T06:54:57;16.42;;;11.63;;
47519;SDS011;33252;48.122;11.538;2023-08-24T06:57:24;14.25;;;10.95;;
47519;SDS011;33252;48.122;11.538;2023-08-24T06:59:49;10.98;;;9.85;;
47519;SDS011;33252;48.122;11.538;2023-08-24T07:02:15;12.45;;;10.27;;
47519;SDS011;33252;48.122;11.538;2023-08-24T07:04:43;13.07;;;10.73;;
47519;SDS011;33252;48.122;11.538;2023-08-24T07:07:11;17.95;;;10.75;;
47519;SDS011;33252;48.122;11.538;2023-08-24T07:09:37;12.30;;;10.82;;
47519;SDS011;33252;48.122;11.538;2023-08-24T07:12:03;10.40;;;9.30;;
47519;SDS011;33252;48.122;11.538;2023-08-24T07:14:32;11.73;;;10.32;;
47519;SDS011;33252;48.122;11.538;2023-08-24T07:16:58;14.95;;;10.18;;
47519;SDS011;33252;48.122;11.538;2023-08-24T07:19:24;15.57;;;10.07;;
47519;SDS011;33252;48.122;11.538;2023-08-24T07:21:49;13.20;;;10.63;;
47519;SDS011;33252;48.122;11.538;2023-08-24T07:24:15;14.13;;;9.80;;
47519;SDS011;33252;48.122;11.538;2023-08-24T07:26:43;11.68;;;9.60;;
47519;SDS011;33252;48.122;11.538;2023-08-24T07:29:10;19.40;;;10.40;;
47519;SDS011;33252;48.122;11.538;2023-08-24T07:31:36;12.85;;;9.82;;
47519;SDS011;33252;48.122;11.538;2023-08-24T07:34:02;10.73;;;9.52;;
47519;SDS011;33252;48.122;11.538;2023-08-24T07:36:29;10.55;;;9.45;;
47519;SDS011;33252;48.122;11.538;2023-08-24T07:38:55;11.85;;;10.70;;
47519;SDS011;33252;48.122;11.538;2023-08-24T07:41:21;11.57;;;10.40;;
47519;SDS011;33252;48.122;11.538;2023-08-24T07:43:46;10.52;;;9.18;;
47519;SDS011;33252;48.122;11.538;2023-08-24T07:46:12;11.73;;;9.80;;
47519;SDS011;33252;48.122;11.538;2023-08-24T07:48:38;10.63;;;9.32;;
47519;SDS011;33252;48.122;11.538;2023-08-24T07:51:03;13.13;;;9.20;;
47519;SDS011;33252;48.122;11.538;2023-08-24T07:53:29;11.68;;;9.07;;
47519;SDS011;33252;48.122;11.538;2023-08-24T07:55:55;10.05;;;9.05;;
47519;SDS011;33252;48.122;11.538;2023-08-24T07:58:22;11.27;;;9.50;;
47519;SDS011;33252;48.122;11.538;2023-08-24T08:00:52;10.23;;;9.23;;
47519;SDS011;33252;48.122;11.538;2023-08-24T08:03:18;12.52;;;9.18;;
47519;SDS011;33252;48.122;11.538;2023-08-24T08:05:44;13.75;;;9.80;;
47519;SDS011;33252;48.122;11.538;2023-08-24T08:08:11;13.38;;;8.90;;
47519;SDS011;33252;48.122;11.538;2023-08-24T08:10:41;10.60;;;9.20;;
47519;SDS011;33252;48.122;11.538;2023-08-24T08:13:07;11.23;;;10.13;;
47519;SDS011;33252;48.122;11.538;2023-08-24T08:15:33;11.18;;;9.48;;
47519;SDS011;33252;48.122;11.538;2023-08-24T08:18:01;10.15;;;8.70;;
47519;SDS011;33252;48.122;11.538;2023-08-24T08:20:26;19.85;;;9.20;;
47519;SDS011;33252;48.122;11.538;2023-08-24T08:22:52;11.65;;;8.43;;
47519;SDS011;33252;48.122;11.538;2023-08-24T08:25:18;9.63;;;8.70;;
47519;SDS011;33252;48.122;11.538;2023-08-24T08:27:44;10.27;;;9.07;;
47519;SDS011;33252;48.122;11.538;2023-08-24T08:30:10;10.00;;;9.00;;
47519;SDS011;33252;48.122;11.538;2023-08-24T08:32:36;12.50;;;7.93;;
47519;SDS011;33252;48.122;11.538;2023-08-24T08:35:01;9.15;;;8.25;;
47519;SDS011;33252;48.122;11.538;2023-08-24T08:37:30;12.63;;;9.35;;
47519;SDS011;33252;48.122;11.538;2023-08-24T08:39:57;11.15;;;8.48;;
47519;SDS011;33252;48.122;11.538;2023-08-24T08:42:22;9.90;;;8.15;;
47519;SDS011;33252;48.122;11.538;2023-08-24T08:44:48;9.35;;;8.45;;
47519;SDS011;33252;48.122;11.538;2023-08-24T08:47:14;10.60;;;7.80;;
47519;SDS011;33252;48.122;11.538;2023-08-24T08:49:42;11.93;;;8.43;;
47519;SDS011;33252;48.122;11.538;2023-08-24T08:52:09;10.40;;;8.43;;
47519;SDS011;33252;48.122;11.538;2023-08-24T08:54:35;10.38;;;8.00;;
47519;SDS011;33252;48.122;11.538;2023-08-24T08:57:01;10.60;;;8.30;;
47519;SDS011;33252;48.122;11.538;2023-08-24T08:59:28;9.90;;;8.77;;
47519;SDS011;33252;48.122;11.538;2023-08-24T09:01:55;13.38;;;8.95;;
47519;SDS011;33252;48.122;11.538;2023-08-24T09:04:23;11.43;;;9.40;;
47519;SDS011;33252;48.122;11.538;2023-08-24T09:06:49;11.85;;;9.00;;
47519;SDS011;33252;48.122;11.538;2023-08-24T09:09:15;9.68;;;8.70;;
47519;SDS011;33252;48.122;11.538;2023-08-24T09:11:41;9.10;;;8.27;;
47519;SDS011;33252;48.122;11.538;2023-08-24T09:14:12;8.55;;;7.75;;
47519;SDS011;33252;48.122;11.538;2023-08-24T09:16:37;10.23;;;9.07;;
47519;SDS011;33252;48.122;11.538;2023-08-24T09:19:05;11.00;;;8.68;;
47519;SDS011;33252;48.122;11.538;2023-08-24T09:21:32;10.65;;;7.82;;
47519;SDS011;33252;48.122;11.538;2023-08-24T09:24:02;13.02;;;7.97;;
47519;SDS011;33252;48.122;11.538;2023-08-24T09:26:32;11.18;;;8.63;;
47519;SDS011;33252;48.122;11.538;2023-08-24T09:29:10;9.27;;;8.20;;
47519;SDS011;33252;48.122;11.538;2023-08-24T09:31:41;11.95;;;8.93;;
47519;SDS011;33252;48.122;11.538;2023-08-24T09:34:10;10.55;;;8.45;;
47519;SDS011;33252;48.122;11.538;2023-08-24T09:36:37;11.57;;;8.73;;
47519;SDS011;33252;48.122;11.538;2023-08-24T09:39:03;8.65;;;7.70;;
47519;SDS011;33252;48.122;11.538;2023-08-24T09:44:11;9.27;;;8.38;;
47519;SDS011;33252;48.122;11.538;2023-08-24T09:46:38;13.60;;;8.57;;
47519;SDS011;33252;48.122;11.538;2023-08-24T09:49:07;9.90;;;8.10;;
47519;SDS011;33252;48.122;11.538;2023-08-24T09:51:35;8.77;;;7.68;;
47519;SDS011;33252;48.122;11.538;2023-08-24T09:54:02;8.70;;;7.90;;
47519;SDS011;33252;48.122;11.538;2023-08-24T09:56:34;8.20;;;7.40;;
47519;SDS011;33252;48.122;11.538;2023-08-24T09:59:15;10.32;;;7.47;;
47519;SDS011;33252;48.122;11.538;2023-08-24T10:01:43;8.95;;;7.85;;
47519;SDS011;33252;48.122;11.538;2023-08-24T10:04:12;7.28;;;6.63;;
47519;SDS011;33252;48.122;11.538;2023-08-24T10:06:39;8.35;;;7.30;;
47519;SDS011;33252;48.122;11.538;2023-08-24T10:09:12;9.60;;;7.53;;
47519;SDS011;33252;48.122;11.538;2023-08-24T10:11:46;9.60;;;8.13;;
47519;SDS011;33252;48.122;11.538;2023-08-24T10:16:46;6.90;;;6.30;;
47519;SDS011;33252;48.122;11.538;2023-08-24T10:19:13;7.00;;;6.43;;
47519;SDS011;33252;48.122;11.538;2023-08-24T10:21:39;6.93;;;5.50;;
47519;SDS011;33252;48.122;11.538;2023-08-24T10:24:06;7.15;;;6.00;;
47519;SDS011;33252;48.122;11.538;2023-08-24T10:26:34;7.55;;;6.45;;
47519;SDS011;33252;48.122;11.538;2023-08-24T10:29:01;7.85;;;6.78;;
47519;SDS011;33252;48.122;11.538;2023-08-24T10:31:29;8.95;;;7.45;;
47519;SDS011;33252;48.122;11.538;2023-08-24T10:33:55;7.93;;;7.13;;
47519;SDS011;33252;48.122;11.538;2023-08-24T10:36:22;9.23;;;7.43;;
47519;SDS011;33252;48.122;11.538;2023-08-24T10:38:48;11.85;;;7.35;;
47519;SDS011;33252;48.122;11.538;2023-08-24T10:41:15;10.13;;;8.18;;
47519;SDS011;33252;48.122;11.538;2023-08-24T10:43:40;13.75;;;7.88;;
47519;SDS011;33252;48.122;11.538;2023-08-24T10:46:13;10.68;;;6.88;;
47519;SDS011;33252;48.122;11.538;2023-08-24T10:53:39;10.55;;;7.05;;
47519;SDS011;33252;48.122;11.538;2023-08-24T10:56:20;8.90;;;6.60;;
47519;SDS011;33252;48.122;11.538;2023-08-24T10:58:46;9.75;;;6.15;;
47519;SDS011;33252;48.122;11.538;2023-08-24T11:01:33;8.75;;;6.07;;
47519;SDS011;33252;48.122;11.538;2023-08-24T11:03:59;9.95;;;5.95;;
47519;SDS011;33252;48.122;11.538;2023-08-24T11:06:25;10.35;;;6.10;;
47519;SDS011;33252;48.122;11.538;2023-08-24T11:09:09;12.63;;;7.65;;
47519;SDS011;33252;48.122;11.538;2023-08-24T11:11:39;7.68;;;6.13;;
47519;SDS011;33252;48.122;11.538;2023-08-24T11:14:15;9.13;;;6.78;;
47519;SDS011;33252;48.122;11.538;2023-08-24T11:16:44;8.50;;;6.68;;
47519;SDS011;33252;48.122;11.538;2023-08-24T11:19:11;9.05;;;6.15;;
47519;SDS011;33252;48.122;11.538;2023-08-24T11:21:40;8.98;;;6.25;;
47519;SDS011;33252;48.122;11.538;2023-08-24T11:24:07;7.05;;;6.30;;
47519;SDS011;33252;48.122;11.538;2023-08-24T11:26:44;7.57;;;6.03;;
47519;SDS011;33252;48.122;11.538;2023-08-24T11:29:11;8.00;;;5.78;;
47519;SDS011;33252;48.122;11.538;2023-08-24T11:31:37;8.05;;;5.90;;
47519;SDS011;33252;48.122;11.538;2023-08-24T11:34:04;10.10;;;6.07;;
47519;SDS011;33252;48.122;11.538;2023-08-24T11:36:33;6.53;;;5.10;;
47519;SDS011;33252;48.122;11.538;2023-08-24T11:39:18;7.88;;;5.65;;
47519;SDS011;33252;48.122;11.538;2023-08-24T11:42:06;7.35;;;5.85;;
47519;SDS011;33252;48.122;11.538;2023-08-24T11:44:49;8.52;;;5.55;;
47519;SDS011;33252;48.122;11.538;2023-08-24T11:47:15;10.00;;;5.13;;
47519;SDS011;33252;48.122;11.538;2023-08-24T11:49:41;7.68;;;5.43;;
47519;SDS011;33252;48.122;11.538;2023-08-24T11:52:07;11.55;;;5.43;;
47519;SDS011;33252;48.122;11.538;2023-08-24T11:54:33;7.88;;;4.95;;
47519;SDS011;33252;48.122;11.538;2023-08-24T11:57:05;5.95;;;4.25;;
47519;SDS011;33252;48.122;11.538;2023-08-24T11:59:32;7.15;;;4.55;;
47519;SDS011;33252;48.122;11.538;2023-08-24T12:01:59;6.60;;;4.95;;
47519;SDS011;33252;48.122;11.538;2023-08-24T12:04:25;10.73;;;5.40;;
47519;SDS011;33252;48.122;11.538;2023-08-24T12:06:50;10.20;;;5.82;;
47519;SDS011;33252;48.122;11.538;2023-08-24T12:09:16;7.75;;;4.15;;
47519;SDS011;33252;48.122;11.538;2023-08-24T12:11:42;6.80;;;3.67;;
47519;SDS011;33252;48.122;11.538;2023-08-24T12:14:16;7.47;;;4.90;;
47519;SDS011;33252;48.122;11.538;2023-08-24T12:16:42;6.47;;;4.53;;
47519;SDS011;33252;48.122;11.538;2023-08-24T12:19:08;8.25;;;5.32;;
47519;SDS011;33252;48.122;11.538;2023-08-24T12:21:34;7.38;;;4.75;;
47519;SDS011;33252;48.122;11.538;2023-08-24T12:26:33;6.57;;;4.15;;
47519;SDS011;33252;48.122;11.538;2023-08-24T12:29:09;9.13;;;5.07;;
47519;SDS011;33252;48.122;11.538;2023-08-24T12:31:35;11.43;;;4.97;;
47519;SDS011;33252;48.122;11.538;2023-08-24T12:34:05;9.52;;;5.10;;
47519;SDS011;33252;48.122;11.538;2023-08-24T12:36:35;9.98;;;5.57;;
47519;SDS011;33252;48.122;11.538;2023-08-24T12:39:03;9.35;;;4.57;;
47519;SDS011;33252;48.122;11.538;2023-08-24T12:41:29;11.65;;;5.05;;
47519;SDS011;33252;48.122;11.538;2023-08-24T12:43:55;8.52;;;5.25;;
47519;SDS011;33252;48.122;11.538;2023-08-24T12:46:21;12.45;;;5.00;;
47519;SDS011;33252;48.122;11.538;2023-08-24T12:48:48;9.70;;;4.82;;
47519;SDS011;33252;48.122;11.538;2023-08-24T12:51:17;8.00;;;4.68;;
47519;SDS011;33252;48.122;11.538;2023-08-24T12:53:43;10.68;;;4.55;;
47519;SDS011;33252;48.122;11.538;2023-08-24T12:56:11;8.35;;;4.88;;
47519;SDS011;33252;48.122;11.538;2023-08-24T12:58:37;9.75;;;5.47;;
47519;SDS011;33252;48.122;11.538;2023-08-24T13:01:03;9.40;;;4.03;;
47519;SDS011;33252;48.122;11.538;2023-08-24T13:03:29;9.05;;;4.68;;
47519;SDS011;33252;48.122;11.538;2023-08-24T13:05:54;11.68;;;4.60;;
47519;SDS011;33252;48.122;11.538;2023-08-24T13:08:20;11.05;;;4.10;;
47519;SDS011;33252;48.122;11.538;2023-08-24T13:10:45;8.05;;;4.45;;
47519;SDS011;33252;48.122;11.538;2023-08-24T13:13:11;8.63;;;3.95;;
47519;SDS011;33252;48.122;11.538;2023-08-24T13:15:37;11.98;;;4.43;;
47519;SDS011;33252;48.122;11.538;2023-08-24T13:18:03;10.68;;;4.40;;
47519;SDS011;33252;48.122;11.538;2023-08-24T13:20:31;9.43;;;5.32;;
47519;SDS011;33252;48.122;11.538;2023-08-24T13:22:57;8.82;;;4.50;;
47519;SDS011;33252;48.122;11.538;2023-08-24T13:25:22;12.82;;;4.32;;
47519;SDS011;33252;48.122;11.538;2023-08-24T13:27:48;8.07;;;5.03;;
47519;SDS011;33252;48.122;11.538;2023-08-24T13:30:14;10.10;;;4.85;;
47519;SDS011;33252;48.122;11.538;2023-08-24T13:32:39;11.65;;;4.65;;
47519;SDS011;33252;48.122;11.538;2023-08-24T13:35:05;11.50;;;5.25;;
47519;SDS011;33252;48.122;11.538;2023-08-24T13:37:31;7.75;;;5.18;;
47519;SDS011;33252;48.122;11.538;2023-08-24T13:39:59;14.38;;;4.78;;
47519;SDS011;33252;48.122;11.538;2023-08-24T13:42:25;8.57;;;4.57;;
47519;SDS011;33252;48.122;11.538;2023-08-24T13:44:51;9.20;;;4.53;;
47519;SDS011;33252;48.122;11.538;2023-08-24T13:47:16;8.80;;;5.13;;
47519;SDS011;33252;48.122;11.538;2023-08-24T13:49:42;7.93;;;3.85;;
47519;SDS011;33252;48.122;11.538;2023-08-24T13:52:08;8.95;;;4.65;;
47519;SDS011;33252;48.122;11.538;2023-08-24T13:54:34;10.77;;;4.78;;
47519;SDS011;33252;48.122;11.538;2023-08-24T13:57:00;8.75;;;4.25;;
47519;SDS011;33252;48.122;11.538;2023-08-24T13:59:26;12.93;;;4.70;;
47519;SDS011;33252;48.122;11.538;2023-08-24T14:01:52;7.93;;;4.47;;
47519;SDS011;33252;48.122;11.538;2023-08-24T14:04:17;8.52;;;4.28;;
47519;SDS011;33252;48.122;11.538;2023-08-24T14:06:43;8.25;;;4.05;;
47519;SDS011;33252;48.122;11.538;2023-08-24T14:09:09;9.38;;;4.30;;
47519;SDS011;33252;48.122;11.538;2023-08-24T14:11:34;10.30;;;4.50;;
47519;SDS011;33252;48.122;11.538;2023-08-24T14:14:00;11.23;;;4.93;;
47519;SDS011;33252;48.122;11.538;2023-08-24T14:16:26;10.35;;;5.18;;
47519;SDS011;33252;48.122;11.538;2023-08-24T14:18:52;10.88;;;5.13;;
47519;SDS011;33252;48.122;11.538;2023-08-24T14:21:18;9.93;;;4.60;;
47519;SDS011;33252;48.122;11.538;2023-08-24T14:23:45;11.27;;;5.18;;
47519;SDS011;33252;48.122;11.538;2023-08-24T14:26:11;7.03;;;4.18;;
47519;SDS011;33252;48.122;11.538;2023-08-24T14:31:33;12.80;;;4.82;;
47519;SDS011;33252;48.122;11.538;2023-08-24T14:33:59;16.77;;;5.35;;
47519;SDS011;33252;48.122;11.538;2023-08-24T14:36:25;10.15;;;4.75;;
47519;SDS011;33252;48.122;11.538;2023-08-24T14:38:50;10.02;;;4.25;;
47519;SDS011;33252;48.122;11.538;2023-08-24T14:41:19;7.22;;;4.53;;
47519;SDS011;33252;48.122;11.538;2023-08-24T14:43:44;13.23;;;4.75;;